sensor_id;sensor_type;location;lat;lon;timestamp;P1;durP1;ratioP1;P2;durP2;ratioP2
1567;SDS011;777;47.156;8.326;2022-07-19T00:00:07;4.47;;;2.30;;
1567;SDS011;777;47.156;8.326;2022-07-19T00:02:36;3.58;;;2.22;;
1567;SDS011;777;47.156;8.326;2022-07-19T00:05:04;2.85;;;2.00;;
1567;SDS011;777;47.156;8.326;2022-07-19T00:07:32;2.33;;;2.10;;
1567;SDS011;777;47.156;8.326;2022-07-19T00:09:59;4.90;;;2.17;;
1567;SDS011;777;47.156;8.326;2022-07-19T00:12:28;7.00;;;2.33;;
1567;SDS011;777;47.156;8.326;2022-07-19T00:14:55;7.28;;;1.98;;
1567;SDS011;777;47.156;8.326;2022-07-19T00:17:22;5.13;;;2.00;;
1567;SDS011;777;47.156;8.326;2022-07-19T00:19:49;5.35;;;2.55;;
1567;SDS011;777;47.156;8.326;2022-07-19T00:22:16;3.60;;;2.15;;
1567;SDS011;777;47.156;8.326;2022-07-19T00:24:43;3.42;;;2.40;;
1567;SDS011;777;47.156;8.326;2022-07-19T00:27:10;6.40;;;2.83;;
1567;SDS011;777;47.156;8.326;2022-07-19T00:29:39;3.15;;;2.30;;
1567;SDS011;777;47.156;8.326;2022-07-19T00:32:06;7.05;;;2.67;;
1567;SDS011;777;47.156;8.326;2022-07-19T00:34:33;4.75;;;2.35;;
1567;SDS011;777;47.156;8.326;2022-07-19T00:37:01;5.07;;;2.65;;
1567;SDS011;777;47.156;8.326;2022-07-19T00:39:28;3.78;;;2.35;;
1567;SDS011;777;47.156;8.326;2022-07-19T00:41:55;6.45;;;2.85;;
1567;SDS011;777;47.156;8.326;2022-07-19T00:44:22;5.35;;;2.42;;
1567;SDS011;777;47.156;8.326;2022-07-19T00:46:50;7.20;;;2.45;;
1567;SDS011;777;47.156;8.326;2022-07-19T00:49:18;5.82;;;2.50;;
1567;SDS011;777;47.156;8.326;2022-07-19T00:51:45;4.70;;;2.78;;
1567;SDS011;777;47.156;8.326;2022-07-19T00:54:13;6.97;;;2.40;;
1567;SDS011;777;47.156;8.326;2022-07-19T00:56:40;3.95;;;2.55;;
1567;SDS011;777;47.156;8.326;2022-07-19T00:59:09;10.93;;;2.70;;
1567;SDS011;777;47.156;8.326;2022-07-19T01:01:38;4.35;;;2.50;;
1567;SDS011;777;47.156;8.326;2022-07-19T01:04:07;4.55;;;2.35;;
1567;SDS011;777;47.156;8.326;2022-07-19T01:06:34;4.20;;;2.40;;
1567;SDS011;777;47.156;8.326;2022-07-19T01:09:02;5.80;;;2.38;;
1567;SDS011;777;47.156;8.326;2022-07-19T01:11:30;3.58;;;2.40;;
1567;SDS011;777;47.156;8.326;2022-07-19T01:13:57;4.00;;;2.55;;
1567;SDS011;777;47.156;8.326;2022-07-19T01:16:24;2.90;;;2.58;;
1567;SDS011;777;47.156;8.326;2022-07-19T01:18:51;4.90;;;2.95;;
1567;SDS011;777;47.156;8.326;2022-07-19T01:21:20;4.47;;;3.05;;
1567;SDS011;777;47.156;8.326;2022-07-19T01:23:48;4.97;;;2.88;;
1567;SDS011;777;47.156;8.326;2022-07-19T01:26:15;4.30;;;2.88;;
1567;SDS011;777;47.156;8.326;2022-07-19T01:28:43;8.73;;;3.05;;
1567;SDS011;777;47.156;8.326;2022-07-19T01:31:10;3.95;;;2.95;;
1567;SDS011;777;47.156;8.326;2022-07-19T01:33:38;6.18;;;3.08;;
1567;SDS011;777;47.156;8.326;2022-07-19T01:36:06;7.10;;;3.22;;
1567;SDS011;777;47.156;8.326;2022-07-19T01:38:35;3.95;;;2.85;;
1567;SDS011;777;47.156;8.326;2022-07-19T01:41:03;7.97;;;4.07;;
1567;SDS011;777;47.156;8.326;2022-07-19T01:43:30;5.70;;;2.92;;
1567;SDS011;777;47.156;8.326;2022-07-19T01:45:57;4.28;;;3.08;;
1567;SDS011;777;47.156;8.326;2022-07-19T01:48:25;7.90;;;3.03;;
1567;SDS011;777;47.156;8.326;2022-07-19T01:50:52;5.95;;;3.10;;
1567;SDS011;777;47.156;8.326;2022-07-19T01:53:19;5.50;;;2.75;;
1567;SDS011;777;47.156;8.326;2022-07-19T01:55:48;3.70;;;2.80;;
1567;SDS011;777;47.156;8.326;2022-07-19T01:58:15;4.65;;;3.05;;
1567;SDS011;777;47.156;8.326;2022-07-19T02:00:42;6.45;;;3.30;;
1567;SDS011;777;47.156;8.326;2022-07-19T02:03:10;4.80;;;3.13;;
1567;SDS011;777;47.156;8.326;2022-07-19T02:05:37;4.97;;;2.90;;
1567;SDS011;777;47.156;8.326;2022-07-19T02:08:04;4.95;;;2.88;;
1567;SDS011;777;47.156;8.326;2022-07-19T02:10:32;7.75;;;3.60;;
1567;SDS011;777;47.156;8.326;2022-07-19T02:13:00;4.57;;;3.33;;
1567;SDS011;777;47.156;8.326;2022-07-19T02:15:27;7.38;;;3.35;;
1567;SDS011;777;47.156;8.326;2022-07-19T02:17:54;4.38;;;2.83;;
1567;SDS011;777;47.156;8.326;2022-07-19T02:20:22;8.13;;;3.00;;
1567;SDS011;777;47.156;8.326;2022-07-19T02:22:49;4.47;;;2.90;;
1567;SDS011;777;47.156;8.326;2022-07-19T02:25:17;6.80;;;3.30;;
1567;SDS011;777;47.156;8.326;2022-07-19T02:27:44;5.35;;;3.38;;
1567;SDS011;777;47.156;8.326;2022-07-19T02:30:13;6.00;;;3.22;;
1567;SDS011;777;47.156;8.326;2022-07-19T02:32:42;4.47;;;2.92;;
1567;SDS011;777;47.156;8.326;2022-07-19T02:35:10;5.47;;;3.10;;
1567;SDS011;777;47.156;8.326;2022-07-19T02:37:38;3.65;;;3.20;;
1567;SDS011;777;47.156;8.326;2022-07-19T02:40:07;3.60;;;2.80;;
1567;SDS011;777;47.156;8.326;2022-07-19T02:42:34;6.97;;;3.70;;
1567;SDS011;777;47.156;8.326;2022-07-19T02:45:01;5.15;;;3.20;;
1567;SDS011;777;47.156;8.326;2022-07-19T02:47:30;7.25;;;3.50;;
1567;SDS011;777;47.156;8.326;2022-07-19T02:49:57;4.88;;;3.42;;
1567;SDS011;777;47.156;8.326;2022-07-19T02:52:24;5.65;;;3.65;;
1567;SDS011;777;47.156;8.326;2022-07-19T02:54:51;8.52;;;3.85;;
1567;SDS011;777;47.156;8.326;2022-07-19T02:57:19;7.03;;;3.70;;
1567;SDS011;777;47.156;8.326;2022-07-19T02:59:46;7.45;;;3.20;;
1567;SDS011;777;47.156;8.326;2022-07-19T03:02:13;5.50;;;3.47;;
1567;SDS011;777;47.156;8.326;2022-07-19T03:04:41;8.25;;;3.70;;
1567;SDS011;777;47.156;8.326;2022-07-19T03:07:08;4.80;;;3.45;;
1567;SDS011;777;47.156;8.326;2022-07-19T03:09:36;6.70;;;3.30;;
1567;SDS011;777;47.156;8.326;2022-07-19T03:12:03;6.90;;;3.88;;
1567;SDS011;777;47.156;8.326;2022-07-19T03:14:30;4.70;;;3.25;;
1567;SDS011;777;47.156;8.326;2022-07-19T03:16:57;5.57;;;3.25;;
1567;SDS011;777;47.156;8.326;2022-07-19T03:19:24;5.78;;;3.63;;
1567;SDS011;777;47.156;8.326;2022-07-19T03:21:54;4.90;;;3.95;;
1567;SDS011;777;47.156;8.326;2022-07-19T03:24:21;10.70;;;3.75;;
1567;SDS011;777;47.156;8.326;2022-07-19T03:26:48;4.63;;;3.20;;
1567;SDS011;777;47.156;8.326;2022-07-19T03:29:15;4.65;;;3.33;;
1567;SDS011;777;47.156;8.326;2022-07-19T03:31:42;7.13;;;3.67;;
1567;SDS011;777;47.156;8.326;2022-07-19T03:34:10;6.25;;;3.40;;
1567;SDS011;777;47.156;8.326;2022-07-19T03:36:37;5.25;;;3.38;;
1567;SDS011;777;47.156;8.326;2022-07-19T03:39:05;6.63;;;3.53;;
1567;SDS011;777;47.156;8.326;2022-07-19T03:41:33;5.63;;;3.88;;
1567;SDS011;777;47.156;8.326;2022-07-19T03:44:00;6.30;;;3.60;;
1567;SDS011;777;47.156;8.326;2022-07-19T03:46:27;4.57;;;3.47;;
1567;SDS011;777;47.156;8.326;2022-07-19T03:48:54;6.75;;;3.40;;
1567;SDS011;777;47.156;8.326;2022-07-19T03:51:22;5.18;;;3.65;;
1567;SDS011;777;47.156;8.326;2022-07-19T03:53:49;5.50;;;3.83;;
1567;SDS011;777;47.156;8.326;2022-07-19T03:56:18;4.45;;;3.88;;
1567;SDS011;777;47.156;8.326;2022-07-19T03:58:46;7.47;;;4.13;;
1567;SDS011;777;47.156;8.326;2022-07-19T04:01:14;4.75;;;3.38;;
1567;SDS011;777;47.156;8.326;2022-07-19T04:03:41;5.18;;;3.50;;
1567;SDS011;777;47.156;8.326;2022-07-19T04:06:10;6.70;;;3.20;;
1567;SDS011;777;47.156;8.326;2022-07-19T04:08:37;6.72;;;3.20;;
1567;SDS011;777;47.156;8.326;2022-07-19T04:11:04;5.75;;;3.45;;
1567;SDS011;777;47.156;8.326;2022-07-19T04:13:33;5.43;;;3.58;;
1567;SDS011;777;47.156;8.326;2022-07-19T04:16:01;7.63;;;3.75;;
1567;SDS011;777;47.156;8.326;2022-07-19T04:18:28;5.28;;;3.65;;
1567;SDS011;777;47.156;8.326;2022-07-19T04:20:56;5.72;;;3.50;;
1567;SDS011;777;47.156;8.326;2022-07-19T04:23:24;5.43;;;3.50;;
1567;SDS011;777;47.156;8.326;2022-07-19T04:25:51;7.28;;;3.55;;
1567;SDS011;777;47.156;8.326;2022-07-19T04:28:18;9.00;;;3.88;;
1567;SDS011;777;47.156;8.326;2022-07-19T04:30:46;7.60;;;4.25;;
1567;SDS011;777;47.156;8.326;2022-07-19T04:33:14;4.68;;;3.80;;
1567;SDS011;777;47.156;8.326;2022-07-19T04:35:41;5.95;;;4.28;;
1567;SDS011;777;47.156;8.326;2022-07-19T04:38:08;5.18;;;3.47;;
1567;SDS011;777;47.156;8.326;2022-07-19T04:40:35;8.25;;;3.60;;
1567;SDS011;777;47.156;8.326;2022-07-19T04:43:03;7.18;;;3.95;;
1567;SDS011;777;47.156;8.326;2022-07-19T04:45:30;5.25;;;3.45;;
1567;SDS011;777;47.156;8.326;2022-07-19T04:47:59;5.15;;;3.78;;
1567;SDS011;777;47.156;8.326;2022-07-19T04:50:26;6.72;;;3.63;;
1567;SDS011;777;47.156;8.326;2022-07-19T04:52:53;6.78;;;3.58;;
1567;SDS011;777;47.156;8.326;2022-07-19T04:55:20;8.50;;;3.55;;
1567;SDS011;777;47.156;8.326;2022-07-19T04:57:48;3.42;;;3.03;;
1567;SDS011;777;47.156;8.326;2022-07-19T05:00:15;11.32;;;3.95;;
1567;SDS011;777;47.156;8.326;2022-07-19T05:02:42;11.02;;;3.85;;
1567;SDS011;777;47.156;8.326;2022-07-19T05:05:11;6.30;;;3.60;;
1567;SDS011;777;47.156;8.326;2022-07-19T05:07:39;9.65;;;3.90;;
1567;SDS011;777;47.156;8.326;2022-07-19T05:10:07;7.43;;;3.72;;
1567;SDS011;777;47.156;8.326;2022-07-19T05:12:35;6.70;;;3.60;;
1567;SDS011;777;47.156;8.326;2022-07-19T05:15:02;6.25;;;3.97;;
1567;SDS011;777;47.156;8.326;2022-07-19T05:17:29;6.43;;;3.70;;
1567;SDS011;777;47.156;8.326;2022-07-19T05:19:56;6.55;;;4.10;;
1567;SDS011;777;47.156;8.326;2022-07-19T05:22:25;5.55;;;3.60;;
1567;SDS011;777;47.156;8.326;2022-07-19T05:24:52;4.35;;;3.45;;
1567;SDS011;777;47.156;8.326;2022-07-19T05:27:21;5.25;;;3.35;;
1567;SDS011;777;47.156;8.326;2022-07-19T05:29:48;7.50;;;3.70;;
1567;SDS011;777;47.156;8.326;2022-07-19T05:32:15;5.50;;;3.40;;
1567;SDS011;777;47.156;8.326;2022-07-19T05:34:43;6.00;;;3.50;;
1567;SDS011;777;47.156;8.326;2022-07-19T05:37:10;4.80;;;3.28;;
1567;SDS011;777;47.156;8.326;2022-07-19T05:39:39;4.45;;;3.25;;
1567;SDS011;777;47.156;8.326;2022-07-19T05:42:06;5.05;;;3.70;;
1567;SDS011;777;47.156;8.326;2022-07-19T05:44:33;4.50;;;3.30;;
1567;SDS011;777;47.156;8.326;2022-07-19T05:47:00;6.25;;;3.45;;
1567;SDS011;777;47.156;8.326;2022-07-19T05:49:27;5.38;;;3.40;;
1567;SDS011;777;47.156;8.326;2022-07-19T05:51:57;5.55;;;3.53;;
1567;SDS011;777;47.156;8.326;2022-07-19T05:54:24;5.05;;;3.45;;
1567;SDS011;777;47.156;8.326;2022-07-19T05:56:53;4.82;;;3.20;;
1567;SDS011;777;47.156;8.326;2022-07-19T05:59:20;4.15;;;3.22;;
1567;SDS011;777;47.156;8.326;2022-07-19T06:01:47;7.07;;;3.53;;
1567;SDS011;777;47.156;8.326;2022-07-19T06:04:15;6.15;;;4.05;;
1567;SDS011;777;47.156;8.326;2022-07-19T06:06:42;3.80;;;2.80;;
1567;SDS011;777;47.156;8.326;2022-07-19T06:09:10;7.78;;;3.30;;
1567;SDS011;777;47.156;8.326;2022-07-19T06:11:37;4.97;;;3.40;;
1567;SDS011;777;47.156;8.326;2022-07-19T06:14:06;5.13;;;3.22;;
1567;SDS011;777;47.156;8.326;2022-07-19T06:16:34;5.35;;;3.00;;
1567;SDS011;777;47.156;8.326;2022-07-19T06:19:03;4.75;;;3.08;;
1567;SDS011;777;47.156;8.326;2022-07-19T06:21:31;5.63;;;3.00;;
1567;SDS011;777;47.156;8.326;2022-07-19T06:23:58;4.95;;;2.90;;
1567;SDS011;777;47.156;8.326;2022-07-19T06:26:25;5.00;;;3.35;;
1567;SDS011;777;47.156;8.326;2022-07-19T06:28:53;4.90;;;3.03;;
1567;SDS011;777;47.156;8.326;2022-07-19T06:31:22;6.63;;;3.55;;
1567;SDS011;777;47.156;8.326;2022-07-19T06:33:50;7.82;;;3.50;;
1567;SDS011;777;47.156;8.326;2022-07-19T06:36:18;7.68;;;3.47;;
1567;SDS011;777;47.156;8.326;2022-07-19T06:38:45;6.10;;;3.60;;
1567;SDS011;777;47.156;8.326;2022-07-19T06:41:13;9.80;;;3.70;;
1567;SDS011;777;47.156;8.326;2022-07-19T06:43:40;7.70;;;3.30;;
1567;SDS011;777;47.156;8.326;2022-07-19T06:46:08;9.10;;;3.40;;
1567;SDS011;777;47.156;8.326;2022-07-19T06:48:36;6.82;;;3.50;;
1567;SDS011;777;47.156;8.326;2022-07-19T06:51:05;8.07;;;3.33;;
1567;SDS011;777;47.156;8.326;2022-07-19T06:53:33;6.47;;;3.63;;
1567;SDS011;777;47.156;8.326;2022-07-19T06:56:00;6.50;;;2.92;;
1567;SDS011;777;47.156;8.326;2022-07-19T06:58:28;5.35;;;2.97;;
1567;SDS011;777;47.156;8.326;2022-07-19T07:00:55;6.13;;;3.90;;
1567;SDS011;777;47.156;8.326;2022-07-19T07:03:26;4.43;;;2.63;;
1567;SDS011;777;47.156;8.326;2022-07-19T07:05:54;5.70;;;2.50;;
1567;SDS011;777;47.156;8.326;2022-07-19T07:08:21;7.85;;;2.92;;
1567;SDS011;777;47.156;8.326;2022-07-19T07:10:48;5.45;;;2.90;;
1567;SDS011;777;47.156;8.326;2022-07-19T07:13:16;6.50;;;3.05;;
1567;SDS011;777;47.156;8.326;2022-07-19T07:15:43;5.38;;;2.85;;
1567;SDS011;777;47.156;8.326;2022-07-19T07:18:10;4.63;;;2.92;;
1567;SDS011;777;47.156;8.326;2022-07-19T07:20:37;6.15;;;2.70;;
1567;SDS011;777;47.156;8.326;2022-07-19T07:23:06;6.75;;;2.85;;
1567;SDS011;777;47.156;8.326;2022-07-19T07:25:33;5.65;;;2.90;;
1567;SDS011;777;47.156;8.326;2022-07-19T07:28:00;5.28;;;2.60;;
1567;SDS011;777;47.156;8.326;2022-07-19T07:30:27;2.83;;;2.40;;
1567;SDS011;777;47.156;8.326;2022-07-19T07:32:54;4.00;;;2.42;;
1567;SDS011;777;47.156;8.326;2022-07-19T07:35:22;6.07;;;2.55;;
1567;SDS011;777;47.156;8.326;2022-07-19T07:37:49;8.85;;;3.10;;
1567;SDS011;777;47.156;8.326;2022-07-19T07:40:17;5.40;;;2.95;;
1567;SDS011;777;47.156;8.326;2022-07-19T07:42:44;6.75;;;3.15;;
1567;SDS011;777;47.156;8.326;2022-07-19T07:45:12;7.18;;;2.83;;
1567;SDS011;777;47.156;8.326;2022-07-19T07:47:39;5.97;;;2.58;;
1567;SDS011;777;47.156;8.326;2022-07-19T07:50:07;5.25;;;2.65;;
1567;SDS011;777;47.156;8.326;2022-07-19T07:52:34;4.68;;;2.80;;
1567;SDS011;777;47.156;8.326;2022-07-19T07:55:02;9.20;;;2.53;;
1567;SDS011;777;47.156;8.326;2022-07-19T07:57:31;6.82;;;2.97;;
1567;SDS011;777;47.156;8.326;2022-07-19T07:59:58;6.07;;;2.70;;
1567;SDS011;777;47.156;8.326;2022-07-19T08:02:25;6.30;;;2.70;;
1567;SDS011;777;47.156;8.326;2022-07-19T08:04:52;4.65;;;2.40;;
1567;SDS011;777;47.156;8.326;2022-07-19T08:07:19;8.63;;;2.80;;
1567;SDS011;777;47.156;8.326;2022-07-19T08:09:47;5.68;;;2.67;;
1567;SDS011;777;47.156;8.326;2022-07-19T08:12:14;6.10;;;2.88;;
1567;SDS011;777;47.156;8.326;2022-07-19T08:14:42;6.55;;;2.53;;
1567;SDS011;777;47.156;8.326;2022-07-19T08:17:09;3.67;;;2.25;;
1567;SDS011;777;47.156;8.326;2022-07-19T08:19:37;6.18;;;2.90;;
1567;SDS011;777;47.156;8.326;2022-07-19T08:22:04;7.97;;;2.53;;
1567;SDS011;777;47.156;8.326;2022-07-19T08:24:31;5.75;;;2.42;;
1567;SDS011;777;47.156;8.326;2022-07-19T08:26:58;3.75;;;2.70;;
1567;SDS011;777;47.156;8.326;2022-07-19T08:29:25;6.80;;;2.60;;
1567;SDS011;777;47.156;8.326;2022-07-19T08:31:54;5.95;;;2.30;;
1567;SDS011;777;47.156;8.326;2022-07-19T08:34:21;4.10;;;2.58;;
1567;SDS011;777;47.156;8.326;2022-07-19T08:36:48;5.88;;;2.50;;
1567;SDS011;777;47.156;8.326;2022-07-19T08:39:15;3.38;;;2.28;;
1567;SDS011;777;47.156;8.326;2022-07-19T08:41:43;4.57;;;2.70;;
1567;SDS011;777;47.156;8.326;2022-07-19T08:44:11;3.95;;;2.53;;
1567;SDS011;777;47.156;8.326;2022-07-19T08:46:38;7.65;;;2.70;;
1567;SDS011;777;47.156;8.326;2022-07-19T08:49:08;7.35;;;3.03;;
1567;SDS011;777;47.156;8.326;2022-07-19T08:51:35;6.53;;;2.97;;
1567;SDS011;777;47.156;8.326;2022-07-19T08:54:03;5.80;;;2.88;;
1567;SDS011;777;47.156;8.326;2022-07-19T08:56:30;4.13;;;2.33;;
1567;SDS011;777;47.156;8.326;2022-07-19T08:59:15;4.82;;;2.83;;
1567;SDS011;777;47.156;8.326;2022-07-19T09:01:42;4.50;;;2.30;;
1567;SDS011;777;47.156;8.326;2022-07-19T09:04:12;6.78;;;2.90;;
1567;SDS011;777;47.156;8.326;2022-07-19T09:06:41;4.95;;;2.53;;
1567;SDS011;777;47.156;8.326;2022-07-19T09:09:10;6.28;;;2.35;;
1567;SDS011;777;47.156;8.326;2022-07-19T09:11:40;6.03;;;2.70;;
1567;SDS011;777;47.156;8.326;2022-07-19T09:14:15;3.85;;;2.53;;
1567;SDS011;777;47.156;8.326;2022-07-19T09:16:53;4.50;;;2.35;;
1567;SDS011;777;47.156;8.326;2022-07-19T09:19:24;3.88;;;2.92;;
1567;SDS011;777;47.156;8.326;2022-07-19T09:21:53;5.72;;;2.60;;
1567;SDS011;777;47.156;8.326;2022-07-19T09:24:22;5.93;;;2.72;;
1567;SDS011;777;47.156;8.326;2022-07-19T09:26:56;7.07;;;2.58;;
1567;SDS011;777;47.156;8.326;2022-07-19T09:29:25;5.55;;;2.80;;
1567;SDS011;777;47.156;8.326;2022-07-19T09:32:00;4.90;;;2.55;;
1567;SDS011;777;47.156;8.326;2022-07-19T09:34:31;7.25;;;2.50;;
1567;SDS011;777;47.156;8.326;2022-07-19T09:39:54;4.18;;;2.75;;
1567;SDS011;777;47.156;8.326;2022-07-19T09:42:24;5.30;;;3.03;;
1567;SDS011;777;47.156;8.326;2022-07-19T09:45:03;7.00;;;3.30;;
1567;SDS011;777;47.156;8.326;2022-07-19T09:47:32;5.97;;;3.15;;
1567;SDS011;777;47.156;8.326;2022-07-19T09:50:01;4.80;;;2.80;;
1567;SDS011;777;47.156;8.326;2022-07-19T09:52:31;5.38;;;2.63;;
1567;SDS011;777;47.156;8.326;2022-07-19T09:55:00;5.32;;;2.67;;
1567;SDS011;777;47.156;8.326;2022-07-19T09:57:30;5.32;;;2.67;;
1567;SDS011;777;47.156;8.326;2022-07-19T10:00:00;3.53;;;2.60;;
1567;SDS011;777;47.156;8.326;2022-07-19T10:02:29;5.97;;;2.67;;
1567;SDS011;777;47.156;8.326;2022-07-19T10:05:03;8.90;;;3.08;;
1567;SDS011;777;47.156;8.326;2022-07-19T10:07:31;5.53;;;2.85;;
1567;SDS011;777;47.156;8.326;2022-07-19T10:10:00;8.18;;;2.63;;
1567;SDS011;777;47.156;8.326;2022-07-19T10:12:28;4.22;;;2.70;;
1567;SDS011;777;47.156;8.326;2022-07-19T10:14:55;5.32;;;2.88;;
1567;SDS011;777;47.156;8.326;2022-07-19T10:17:23;5.47;;;2.83;;
1567;SDS011;777;47.156;8.326;2022-07-19T10:19:55;5.05;;;3.13;;
1567;SDS011;777;47.156;8.326;2022-07-19T10:22:25;4.05;;;2.95;;
1567;SDS011;777;47.156;8.326;2022-07-19T10:24:53;4.90;;;3.10;;
1567;SDS011;777;47.156;8.326;2022-07-19T10:27:35;5.93;;;3.22;;
1567;SDS011;777;47.156;8.326;2022-07-19T10:30:21;7.30;;;3.05;;
1567;SDS011;777;47.156;8.326;2022-07-19T10:32:51;4.90;;;2.83;;
1567;SDS011;777;47.156;8.326;2022-07-19T10:35:21;5.03;;;2.83;;
1567;SDS011;777;47.156;8.326;2022-07-19T10:37:55;8.65;;;3.00;;
1567;SDS011;777;47.156;8.326;2022-07-19T10:40:37;7.10;;;3.22;;
1567;SDS011;777;47.156;8.326;2022-07-19T10:43:08;10.30;;;2.80;;
1567;SDS011;777;47.156;8.326;2022-07-19T10:45:37;5.82;;;2.75;;
1567;SDS011;777;47.156;8.326;2022-07-19T10:48:09;9.27;;;2.92;;
1567;SDS011;777;47.156;8.326;2022-07-19T10:50:46;6.88;;;3.03;;
1567;SDS011;777;47.156;8.326;2022-07-19T10:56:33;4.22;;;2.70;;
1567;SDS011;777;47.156;8.326;2022-07-19T10:59:05;9.70;;;2.85;;
1567;SDS011;777;47.156;8.326;2022-07-19T11:01:35;6.40;;;2.58;;
1567;SDS011;777;47.156;8.326;2022-07-19T11:07:13;6.25;;;2.72;;
1567;SDS011;777;47.156;8.326;2022-07-19T11:09:44;6.10;;;2.63;;
1567;SDS011;777;47.156;8.326;2022-07-19T11:12:23;5.95;;;2.95;;
1567;SDS011;777;47.156;8.326;2022-07-19T11:14:52;6.95;;;2.92;;
1567;SDS011;777;47.156;8.326;2022-07-19T11:17:20;4.40;;;2.65;;
1567;SDS011;777;47.156;8.326;2022-07-19T11:22:43;5.68;;;2.38;;
1567;SDS011;777;47.156;8.326;2022-07-19T11:25:14;6.00;;;2.90;;
1567;SDS011;777;47.156;8.326;2022-07-19T11:27:42;6.43;;;2.72;;
1567;SDS011;777;47.156;8.326;2022-07-19T11:30:11;6.90;;;2.47;;
1567;SDS011;777;47.156;8.326;2022-07-19T11:32:40;7.90;;;2.72;;
1567;SDS011;777;47.156;8.326;2022-07-19T11:35:11;8.10;;;2.72;;
1567;SDS011;777;47.156;8.326;2022-07-19T11:37:42;6.72;;;2.53;;
1567;SDS011;777;47.156;8.326;2022-07-19T11:40:10;4.55;;;2.58;;
1567;SDS011;777;47.156;8.326;2022-07-19T11:42:42;7.90;;;2.47;;
1567;SDS011;777;47.156;8.326;2022-07-19T11:45:11;6.80;;;2.50;;
1567;SDS011;777;47.156;8.326;2022-07-19T11:47:40;4.30;;;2.47;;
1567;SDS011;777;47.156;8.326;2022-07-19T11:50:09;7.63;;;3.00;;
1567;SDS011;777;47.156;8.326;2022-07-19T11:52:41;7.25;;;3.20;;
1567;SDS011;777;47.156;8.326;2022-07-19T11:55:12;4.93;;;2.60;;
1567;SDS011;777;47.156;8.326;2022-07-19T11:57:42;6.95;;;2.70;;
1567;SDS011;777;47.156;8.326;2022-07-19T12:00:09;6.00;;;2.42;;
1567;SDS011;777;47.156;8.326;2022-07-19T12:02:51;5.55;;;2.28;;
1567;SDS011;777;47.156;8.326;2022-07-19T12:05:23;5.70;;;2.33;;
1567;SDS011;777;47.156;8.326;2022-07-19T12:07:51;4.07;;;2.60;;
1567;SDS011;777;47.156;8.326;2022-07-19T12:10:38;3.45;;;2.10;;
1567;SDS011;777;47.156;8.326;2022-07-19T12:13:09;3.05;;;2.38;;
1567;SDS011;777;47.156;8.326;2022-07-19T12:15:44;4.75;;;2.60;;
1567;SDS011;777;47.156;8.326;2022-07-19T12:18:16;10.30;;;2.63;;
1567;SDS011;777;47.156;8.326;2022-07-19T12:20:44;8.05;;;2.35;;
1567;SDS011;777;47.156;8.326;2022-07-19T12:23:13;3.72;;;2.22;;
1567;SDS011;777;47.156;8.326;2022-07-19T12:25:41;6.78;;;2.40;;
1567;SDS011;777;47.156;8.326;2022-07-19T12:28:10;5.30;;;2.40;;
1567;SDS011;777;47.156;8.326;2022-07-19T12:30:37;4.40;;;2.10;;
1567;SDS011;777;47.156;8.326;2022-07-19T12:33:05;7.22;;;2.20;;
1567;SDS011;777;47.156;8.326;2022-07-19T12:35:40;3.08;;;1.92;;
1567;SDS011;777;47.156;8.326;2022-07-19T12:38:08;4.93;;;2.22;;
1567;SDS011;777;47.156;8.326;2022-07-19T12:40:37;3.05;;;1.88;;
1567;SDS011;777;47.156;8.326;2022-07-19T12:43:05;7.88;;;2.30;;
1567;SDS011;777;47.156;8.326;2022-07-19T12:45:37;2.75;;;1.70;;
1567;SDS011;777;47.156;8.326;2022-07-19T12:48:06;4.50;;;1.80;;
1567;SDS011;777;47.156;8.326;2022-07-19T12:50:37;5.00;;;1.90;;
1567;SDS011;777;47.156;8.326;2022-07-19T12:53:08;6.47;;;2.05;;
1567;SDS011;777;47.156;8.326;2022-07-19T12:55:37;6.73;;;2.10;;
1567;SDS011;777;47.156;8.326;2022-07-19T12:58:06;4.95;;;1.90;;
1567;SDS011;777;47.156;8.326;2022-07-19T13:00:34;2.72;;;1.65;;
1567;SDS011;777;47.156;8.326;2022-07-19T13:03:04;4.47;;;1.90;;
1567;SDS011;777;47.156;8.326;2022-07-19T13:05:32;5.68;;;1.70;;
1567;SDS011;777;47.156;8.326;2022-07-19T13:08:00;3.60;;;1.60;;
1567;SDS011;777;47.156;8.326;2022-07-19T13:10:28;4.43;;;1.92;;
1567;SDS011;777;47.156;8.326;2022-07-19T13:12:55;3.83;;;1.70;;
1567;SDS011;777;47.156;8.326;2022-07-19T13:15:23;7.00;;;2.13;;
1567;SDS011;777;47.156;8.326;2022-07-19T13:17:51;5.95;;;2.00;;
1567;SDS011;777;47.156;8.326;2022-07-19T13:20:18;3.08;;;1.70;;
1567;SDS011;777;47.156;8.326;2022-07-19T13:22:45;5.65;;;2.00;;
1567;SDS011;777;47.156;8.326;2022-07-19T13:25:12;7.43;;;2.05;;
1567;SDS011;777;47.156;8.326;2022-07-19T13:27:40;9.93;;;1.92;;
1567;SDS011;777;47.156;8.326;2022-07-19T13:30:07;6.78;;;1.77;;
1567;SDS011;777;47.156;8.326;2022-07-19T13:32:35;8.27;;;1.95;;
1567;SDS011;777;47.156;8.326;2022-07-19T13:35:04;5.43;;;2.15;;
1567;SDS011;777;47.156;8.326;2022-07-19T13:37:32;5.30;;;1.85;;
1567;SDS011;777;47.156;8.326;2022-07-19T13:39:59;4.88;;;1.75;;
1567;SDS011;777;47.156;8.326;2022-07-19T13:42:26;5.30;;;2.05;;
1567;SDS011;777;47.156;8.326;2022-07-19T13:44:53;3.30;;;1.75;;
1567;SDS011;777;47.156;8.326;2022-07-19T13:47:20;3.45;;;1.50;;
1567;SDS011;777;47.156;8.326;2022-07-19T13:49:47;3.03;;;1.35;;
1567;SDS011;777;47.156;8.326;2022-07-19T13:52:16;4.78;;;1.83;;
1567;SDS011;777;47.156;8.326;2022-07-19T13:54:46;4.10;;;1.40;;
1567;SDS011;777;47.156;8.326;2022-07-19T13:57:13;4.32;;;1.55;;
1567;SDS011;777;47.156;8.326;2022-07-19T13:59:40;5.60;;;1.60;;
1567;SDS011;777;47.156;8.326;2022-07-19T14:02:07;5.60;;;1.95;;
1567;SDS011;777;47.156;8.326;2022-07-19T14:04:35;4.72;;;1.70;;
1567;SDS011;777;47.156;8.326;2022-07-19T14:07:02;3.78;;;1.50;;
1567;SDS011;777;47.156;8.326;2022-07-19T14:09:30;4.50;;;1.65;;
1567;SDS011;777;47.156;8.326;2022-07-19T14:11:59;3.97;;;1.60;;
1567;SDS011;777;47.156;8.326;2022-07-19T14:14:26;3.97;;;1.88;;
1567;SDS011;777;47.156;8.326;2022-07-19T14:16:53;6.85;;;1.70;;
1567;SDS011;777;47.156;8.326;2022-07-19T14:19:20;3.30;;;1.80;;
1567;SDS011;777;47.156;8.326;2022-07-19T14:21:47;3.28;;;1.42;;
1567;SDS011;777;47.156;8.326;2022-07-19T14:24:14;6.50;;;1.67;;
1567;SDS011;777;47.156;8.326;2022-07-19T14:26:42;4.82;;;1.80;;
1567;SDS011;777;47.156;8.326;2022-07-19T14:29:09;3.38;;;1.60;;
1567;SDS011;777;47.156;8.326;2022-07-19T14:31:37;7.10;;;1.90;;
1567;SDS011;777;47.156;8.326;2022-07-19T14:34:04;6.95;;;1.70;;
1567;SDS011;777;47.156;8.326;2022-07-19T14:36:31;3.25;;;1.80;;
1567;SDS011;777;47.156;8.326;2022-07-19T14:38:58;3.97;;;2.00;;
1567;SDS011;777;47.156;8.326;2022-07-19T14:41:25;7.63;;;1.83;;
1567;SDS011;777;47.156;8.326;2022-07-19T14:43:53;7.63;;;1.90;;
1567;SDS011;777;47.156;8.326;2022-07-19T14:46:20;6.32;;;1.70;;
1567;SDS011;777;47.156;8.326;2022-07-19T14:48:47;5.55;;;1.75;;
1567;SDS011;777;47.156;8.326;2022-07-19T14:51:14;5.90;;;1.80;;
1567;SDS011;777;47.156;8.326;2022-07-19T14:53:41;4.38;;;1.85;;
1567;SDS011;777;47.156;8.326;2022-07-19T14:56:09;4.88;;;2.05;;
1567;SDS011;777;47.156;8.326;2022-07-19T14:58:36;6.70;;;2.00;;
1567;SDS011;777;47.156;8.326;2022-07-19T15:01:05;4.95;;;1.60;;
1567;SDS011;777;47.156;8.326;2022-07-19T15:03:32;7.22;;;2.08;;
1567;SDS011;777;47.156;8.326;2022-07-19T15:05:59;4.55;;;1.60;;
1567;SDS011;777;47.156;8.326;2022-07-19T15:08:27;6.22;;;1.83;;
1567;SDS011;777;47.156;8.326;2022-07-19T15:10:54;7.10;;;2.28;;
1567;SDS011;777;47.156;8.326;2022-07-19T15:13:21;7.18;;;2.20;;
1567;SDS011;777;47.156;8.326;2022-07-19T15:15:48;5.93;;;2.17;;
1567;SDS011;777;47.156;8.326;2022-07-19T15:18:16;6.40;;;2.05;;
1567;SDS011;777;47.156;8.326;2022-07-19T15:20:43;7.57;;;1.88;;
1567;SDS011;777;47.156;8.326;2022-07-19T15:23:11;5.13;;;2.10;;
1567;SDS011;777;47.156;8.326;2022-07-19T15:25:38;6.05;;;2.00;;
1567;SDS011;777;47.156;8.326;2022-07-19T15:28:05;5.25;;;2.13;;
1567;SDS011;777;47.156;8.326;2022-07-19T15:30:32;6.95;;;2.20;;
1567;SDS011;777;47.156;8.326;2022-07-19T15:32:59;3.53;;;1.70;;
1567;SDS011;777;47.156;8.326;2022-07-19T15:35:27;6.70;;;2.00;;
1567;SDS011;777;47.156;8.326;2022-07-19T15:37:55;8.02;;;2.28;;
1567;SDS011;777;47.156;8.326;2022-07-19T15:40:22;6.95;;;2.20;;
1567;SDS011;777;47.156;8.326;2022-07-19T15:42:49;5.60;;;2.03;;
1567;SDS011;777;47.156;8.326;2022-07-19T15:45:17;4.68;;;2.13;;
1567;SDS011;777;47.156;8.326;2022-07-19T15:47:46;5.50;;;2.20;;